Terminal Aerodrome Forecast
Issued by NWS

Home | Current Version | Previous Version | Text Only | Print | Product List | Glossary On
Versions: 1 2 3 4 5 6 7 8 9 10 11 12
467
FTUS45 KRIW 122331
TAFWRL
TAF
KWRL 122331Z 1300/1324 VRB05KT P6SM FEW120 BKN250
     FM131400 VRB05KT P6SM VCSH BKN070
     FM132000 33017G25KT P6SM SCT110=

USA.gov is the U.S. government's official web portal to all federal, state and local government web resources and services.